Terminal Aerodrome Forecast
Issued by NWS

Home | Current Version | Previous Version | Text Only | Print | Product List | Glossary On
Versions: 1 2 3 4 5 6 7 8 9 10 11 12 13 14 15 16 17 18 19 20 21 22 23 24 25 26 27 28 29 30 31 32 33 34 35 36 37 38 39
356
FTUS43 KPAH 270910 AAA
TAFOWB
TAF AMD
KOWB 270910Z 2709/2806 VRB03KT P6SM FEW100 BKN200
      TEMPO 2709/2713 3SM BR
     FM271500 20010G17KT P6SM SCT030 BKN200
     FM280000 17007KT P6SM SCT050 BKN150=

USA.gov is the U.S. government's official web portal to all federal, state and local government web resources and services.